createdAt,value
2019-06-01T00:00:40.000Z,9.13
2019-06-01T00:06:33.989Z,9.45
2019-06-01T00:09:21.212Z,11.13
2019-06-01T00:12:08.737Z,7.35
2019-06-01T00:14:55.962Z,7.60
2019-06-01T00:17:43.885Z,13.10
2019-06-01T00:20:31.369Z,6.47
2019-06-01T00:23:21.199Z,11.38
2019-06-01T00:26:08.108Z,8.75
2019-06-01T00:28:55.432Z,8.48
2019-06-01T00:31:43.131Z,8.68
2019-06-01T00:34:30.990Z,9.27
2019-06-01T00:37:18.134Z,7.90
2019-06-01T00:40:05.172Z,10.00
2019-06-01T00:42:53.128Z,9.88
2019-06-01T00:45:54.897Z,11.40
2019-06-01T00:48:42.144Z,10.15
2019-06-01T00:51:31.362Z,12.98
2019-06-01T00:54:18.115Z,6.43
2019-06-01T00:57:05.083Z,9.73
2019-06-01T00:59:53.640Z,7.70
2019-06-01T01:02:40.823Z,14.05
2019-06-01T01:05:28.914Z,10.23
2019-06-01T01:08:17.380Z,7.45
2019-06-01T01:11:04.740Z,12.15
2019-06-01T01:13:53.544Z,8.93
2019-06-01T01:19:45.643Z,9.75
2019-06-01T01:22:33.240Z,8.90
2019-06-01T01:25:21.253Z,6.70
2019-06-01T01:28:11.871Z,9.32
2019-06-01T01:31:12.516Z,9.30
2019-06-01T01:33:47.233Z,7.05
2019-06-01T01:36:33.310Z,13.30
2019-06-01T01:45:38.916Z,11.12
2019-06-01T01:48:25.910Z,7.25
2019-06-01T01:51:13.045Z,12.00
2019-06-01T01:54:04.517Z,8.50
2019-06-01T01:56:50.443Z,11.93
2019-06-01T01:59:43.889Z,9.77
2019-06-01T02:05:36.960Z,10.98
2019-06-01T02:08:23.760Z,8.73
2019-06-01T02:11:11.293Z,10.38
2019-06-01T02:13:59.939Z,7.37
2019-06-01T02:17:00.242Z,8.63
2019-06-01T02:19:47.181Z,10.70
2019-06-01T02:22:34.069Z,9.25
2019-06-01T02:25:22.009Z,10.27
2019-06-01T02:28:09.887Z,10.38
2019-06-01T02:30:57.922Z,10.40
2019-06-01T02:33:47.046Z,12.20
2019-06-01T02:39:41.042Z,11.45
2019-06-01T02:42:28.757Z,11.88
2019-06-01T02:45:15.814Z,14.18
2019-06-01T02:48:03.890Z,12.02
2019-06-01T02:50:49.813Z,13.70
2019-06-01T02:53:37.245Z,14.63
2019-06-01T02:56:38.698Z,11.35
2019-06-01T02:59:26.615Z,16.63
2019-06-01T03:02:15.165Z,14.20
2019-06-01T03:05:01.768Z,13.52
2019-06-01T03:07:48.998Z,13.25
2019-06-01T03:10:36.229Z,15.40
2019-06-01T03:13:30.434Z,14.32
2019-06-01T03:16:19.337Z,13.10
2019-06-01T03:19:06.296Z,13.98
2019-06-01T03:21:56.745Z,13.55
2019-06-01T03:24:44.884Z,11.10
2019-06-01T03:27:39.340Z,9.93
2019-06-01T03:30:45.216Z,17.12
2019-06-01T03:33:27.963Z,15.25
2019-06-01T03:36:14.788Z,11.88
2019-06-01T03:39:02.165Z,9.65
2019-06-01T03:41:48.978Z,14.48
2019-06-01T03:44:36.436Z,13.27
2019-06-01T03:47:23.863Z,10.32
2019-06-01T03:50:10.778Z,11.90
2019-06-01T03:52:57.559Z,9.55
2019-06-01T03:55:58.830Z,11.77
2019-06-01T03:58:46.411Z,12.17
2019-06-01T04:01:33.238Z,11.60
2019-06-01T04:04:21.051Z,11.50
2019-06-01T04:07:08.284Z,14.30
2019-06-01T04:10:02.047Z,11.70
2019-06-01T04:15:54.923Z,13.68
2019-06-01T04:18:43.345Z,14.10
2019-06-01T04:21:30.336Z,14.98
2019-06-01T04:24:17.812Z,12.97
2019-06-01T04:27:08.262Z,12.88
2019-06-01T04:29:54.935Z,11.73
2019-06-01T04:32:49.993Z,12.32
2019-06-01T04:35:30.578Z,15.60
2019-06-01T04:38:18.101Z,11.73
2019-06-01T04:41:12.256Z,13.50
2019-06-01T04:43:59.039Z,10.48
2019-06-01T04:46:46.328Z,10.60
2019-06-01T04:49:40.468Z,12.13
2019-06-01T04:52:34.542Z,14.05
2019-06-01T04:55:21.694Z,11.77
2019-06-01T04:58:09.034Z,11.02
2019-06-01T05:00:55.760Z,11.05
2019-06-01T05:03:43.234Z,9.88
2019-06-01T05:06:32.072Z,13.93
2019-06-01T05:12:26.363Z,13.43
2019-06-01T05:15:27.654Z,13.57
2019-06-01T05:18:18.331Z,13.40
2019-06-01T05:21:02.258Z,10.38
2019-06-01T05:23:50.027Z,15.85
2019-06-01T05:26:37.702Z,9.73
2019-06-01T05:29:24.717Z,11.02
2019-06-01T05:32:12.672Z,11.50
2019-06-01T05:35:00.175Z,10.57
2019-06-01T05:37:50.565Z,12.10
2019-06-01T05:40:37.682Z,12.07
2019-06-01T05:43:24.634Z,11.52
2019-06-01T05:46:26.269Z,11.07
2019-06-01T05:49:27.301Z,11.50
2019-06-01T05:52:14.541Z,11.90
2019-06-01T05:55:01.752Z,12.35
2019-06-01T05:57:48.865Z,12.02
2019-06-01T06:00:44.141Z,11.95
2019-06-01T06:03:39.911Z,11.77
2019-06-01T06:06:19.955Z,13.43
2019-06-01T06:09:07.259Z,11.20
2019-06-01T06:11:54.173Z,10.38
2019-06-01T06:17:49.053Z,12.27
2019-06-01T06:20:36.884Z,13.40
2019-06-01T06:23:33.532Z,9.85
2019-06-01T06:29:27.237Z,11.57
2019-06-01T06:32:15.006Z,11.43
2019-06-01T06:35:01.258Z,9.48
2019-06-01T06:38:02.912Z,9.93
2019-06-01T06:40:50.205Z,9.35
2019-06-01T06:43:36.961Z,9.43
2019-06-01T06:46:24.857Z,9.32
2019-06-01T06:49:11.652Z,8.82
2019-06-01T06:51:59.026Z,9.87
2019-06-01T06:54:47.197Z,8.80
2019-06-01T06:57:42.249Z,8.40
2019-06-01T07:00:29.979Z,8.73
2019-06-01T07:03:16.975Z,7.82
2019-06-01T07:06:04.494Z,8.25
2019-06-01T07:12:04.309Z,8.00
2019-06-01T07:14:51.451Z,10.60
2019-06-01T07:17:38.259Z,9.63
2019-06-01T07:20:25.699Z,7.47
2019-06-01T07:23:12.841Z,8.75
2019-06-01T07:26:00.602Z,7.40
2019-06-01T07:28:48.674Z,6.05
2019-06-01T07:34:42.937Z,6.43
2019-06-01T07:37:28.853Z,5.68
2019-06-01T07:40:15.751Z,7.68
2019-06-01T07:43:03.464Z,6.22
2019-06-01T07:45:51.215Z,5.15
2019-06-01T07:48:38.338Z,5.18
2019-06-01T07:51:29.606Z,6.30
2019-06-01T07:57:23.492Z,5.45
2019-06-01T08:00:09.863Z,10.60
2019-06-01T08:03:11.978Z,8.07
2019-06-01T08:05:59.120Z,4.62
2019-06-01T08:08:46.092Z,5.25
2019-06-01T08:11:35.150Z,4.43
2019-06-01T08:14:22.441Z,5.22
2019-06-01T08:17:08.390Z,4.93
2019-06-01T08:19:56.711Z,3.97
2019-06-01T08:25:50.557Z,4.07
2019-06-01T08:28:37.883Z,4.37
2019-06-01T08:31:26.654Z,4.82
2019-06-01T08:34:13.194Z,5.43
2019-06-01T08:37:01.239Z,3.65
2019-06-01T08:39:48.295Z,4.68
2019-06-01T08:42:50.104Z,4.70
2019-06-01T08:45:37.660Z,4.43
2019-06-01T08:48:25.711Z,5.20
2019-06-01T08:51:19.699Z,4.70
2019-06-01T08:54:07.680Z,5.65
2019-06-01T08:56:55.535Z,4.03
2019-06-01T08:59:43.043Z,4.28
2019-06-01T09:02:30.831Z,3.65
2019-06-01T09:05:24.239Z,6.78
2019-06-01T09:08:05.517Z,3.30
2019-06-01T09:10:52.868Z,4.35
2019-06-01T09:13:39.982Z,3.78
2019-06-01T09:19:34.149Z,3.10
2019-06-01T09:22:21.506Z,4.65
2019-06-01T09:25:08.638Z,4.93
2019-06-01T09:27:55.629Z,2.85
2019-06-01T09:30:43.026Z,6.25
2019-06-01T09:33:32.213Z,1.87
2019-06-01T09:36:17.997Z,2.65
2019-06-01T09:39:06.936Z,2.75
2019-06-01T09:41:53.800Z,3.50
2019-06-01T09:44:40.561Z,3.20
2019-06-01T09:47:29.061Z,3.25
2019-06-01T09:52:40.523Z,2.15
2019-06-01T09:55:28.936Z,2.80
2019-06-01T09:58:14.575Z,1.90
2019-06-01T10:01:01.801Z,1.65
2019-06-01T10:03:49.805Z,1.67
2019-06-01T10:09:44.403Z,2.50
2019-06-01T10:12:31.981Z,1.73
2019-06-01T10:15:19.692Z,2.12
2019-06-01T10:18:06.881Z,2.05
2019-06-01T10:27:07.451Z,2.50
2019-06-01T10:30:01.650Z,2.00
2019-06-01T10:35:54.768Z,1.40
2019-06-01T10:38:41.863Z,2.00
2019-06-01T10:41:29.131Z,1.48
2019-06-01T10:44:16.276Z,1.75
2019-06-01T10:47:17.851Z,2.12
2019-06-01T10:50:19.220Z,1.05
2019-06-01T10:53:07.154Z,2.35
2019-06-01T10:55:55.344Z,1.20
2019-06-01T10:58:58.806Z,2.45
2019-06-01T11:01:33.833Z,1.50
2019-06-01T11:04:17.790Z,1.80
2019-06-01T11:07:04.600Z,0.98
2019-06-01T11:09:51.553Z,1.30
2019-06-01T11:12:39.152Z,1.17
2019-06-01T11:15:25.844Z,1.40
2019-06-01T11:18:13.656Z,1.37
2019-06-01T11:21:00.979Z,1.98
2019-06-01T11:23:49.022Z,1.33
2019-06-01T11:26:35.851Z,1.95
2019-06-01T11:29:23.491Z,1.83
2019-06-01T11:32:10.318Z,2.25
2019-06-01T11:34:57.516Z,2.05
2019-06-01T11:37:45.317Z,1.27
2019-06-01T11:40:34.354Z,1.33
2019-06-01T11:46:27.439Z,1.90
2019-06-01T11:49:20.412Z,2.03
2019-06-01T11:52:02.750Z,1.70
2019-06-01T11:54:50.056Z,1.08
2019-06-01T11:57:37.575Z,1.73
2019-06-01T12:00:25.687Z,1.20
2019-06-01T12:03:12.656Z,1.90
2019-06-01T12:05:59.559Z,1.33
2019-06-01T12:08:47.152Z,2.65
2019-06-01T12:11:33.989Z,1.20
2019-06-01T12:14:22.436Z,1.27
2019-06-01T12:17:10.436Z,2.33
2019-06-01T12:19:57.212Z,3.33
2019-06-01T12:22:45.188Z,1.70
2019-06-01T12:28:39.563Z,1.80
2019-06-01T12:31:25.806Z,2.33
2019-06-01T12:34:12.592Z,1.33
2019-06-01T12:36:59.735Z,2.12
2019-06-01T12:39:52.267Z,2.12
2019-06-01T12:42:34.576Z,1.48
2019-06-01T12:45:23.322Z,2.83
2019-06-01T12:48:09.928Z,2.58
2019-06-01T12:50:56.845Z,2.28
2019-06-01T12:53:44.485Z,2.87
2019-06-01T12:59:37.289Z,3.20
2019-06-01T13:02:25.062Z,2.17
2019-06-01T13:05:12.221Z,1.40
2019-06-01T13:08:02.801Z,3.78
2019-06-01T13:10:48.145Z,2.95
2019-06-01T13:13:35.497Z,1.85
2019-06-01T13:16:23.339Z,1.65
2019-06-01T13:19:10.427Z,1.50
2019-06-01T13:21:58.590Z,1.95
2019-06-01T13:24:46.097Z,2.08
2019-06-01T13:27:33.358Z,1.37
2019-06-01T13:30:20.791Z,1.27
2019-06-01T13:33:08.082Z,1.30
2019-06-01T13:35:55.465Z,3.37
2019-06-01T13:38:42.550Z,1.65
2019-06-01T13:41:30.350Z,1.35
2019-06-01T13:44:17.323Z,1.65
2019-06-01T13:47:04.493Z,2.22
2019-06-01T13:50:06.800Z,1.23
2019-06-01T13:52:54.271Z,1.70
2019-06-01T13:55:41.987Z,2.47
2019-06-01T13:58:30.520Z,1.02
2019-06-01T14:01:17.963Z,1.05
2019-06-01T14:04:05.519Z,1.10
2019-06-01T14:06:53.172Z,1.20
2019-06-01T14:09:43.101Z,1.62
2019-06-01T14:12:29.828Z,1.10
2019-06-01T14:15:18.048Z,1.00
2019-06-01T14:18:04.979Z,1.17
2019-06-01T14:20:52.013Z,1.55
2019-06-01T14:23:39.212Z,1.95
2019-06-01T14:26:26.262Z,1.35
2019-06-01T14:29:13.164Z,0.82
2019-06-01T14:32:00.214Z,0.98
2019-06-01T14:34:51.431Z,2.10
2019-06-01T14:37:53.369Z,1.48
2019-06-01T14:40:41.545Z,3.05
2019-06-01T14:43:27.257Z,1.35
2019-06-01T14:46:16.648Z,1.30
2019-06-01T14:49:04.250Z,1.70
2019-06-01T14:51:51.547Z,2.65
2019-06-01T14:54:44.893Z,2.15
2019-06-01T14:57:32.798Z,1.30
2019-06-01T15:00:19.901Z,1.92
2019-06-01T15:03:07.445Z,1.83
2019-06-01T15:05:54.377Z,0.95
2019-06-01T15:08:41.729Z,0.98
2019-06-01T15:11:29.683Z,0.93
2019-06-01T15:14:16.830Z,1.40
2019-06-01T15:17:04.238Z,1.77
2019-06-01T15:19:56.089Z,1.10
2019-06-01T15:22:41.625Z,1.30
2019-06-01T15:25:28.990Z,0.80
2019-06-01T15:28:16.155Z,1.00
2019-06-01T15:31:03.888Z,1.00
2019-06-01T15:33:51.219Z,0.85
2019-06-01T15:39:43.604Z,4.35
2019-06-01T15:42:34.574Z,1.00
2019-06-01T15:45:22.110Z,0.90
2019-06-01T15:48:11.005Z,0.90
2019-06-01T15:51:02.301Z,1.33
2019-06-01T15:53:46.221Z,1.00
2019-06-01T15:56:33.142Z,1.00
2019-06-01T15:59:20.471Z,1.20
2019-06-01T16:02:08.712Z,1.42
2019-06-01T16:04:57.037Z,1.10
2019-06-01T16:07:43.451Z,0.90
2019-06-01T16:10:30.678Z,1.40
2019-06-01T16:13:18.117Z,2.10
2019-06-01T16:16:05.374Z,1.60
2019-06-01T16:18:57.457Z,1.55
2019-06-01T16:21:40.432Z,1.83
2019-06-01T16:24:27.111Z,1.60
2019-06-01T16:30:20.790Z,1.73
2019-06-01T16:33:07.807Z,2.03
2019-06-01T16:35:55.098Z,3.80
2019-06-01T16:38:42.248Z,1.75
2019-06-01T16:41:30.133Z,1.10
2019-06-01T16:44:19.873Z,1.00
2019-06-01T16:47:06.023Z,0.90
2019-06-01T16:49:52.606Z,1.35
2019-06-01T16:52:39.604Z,1.60
2019-06-01T17:01:39.000Z,2.80
2019-06-01T17:04:32.824Z,1.73
2019-06-01T17:07:27.060Z,1.20
2019-06-01T17:13:20.520Z,5.18
2019-06-01T17:16:21.728Z,2.25
2019-06-01T17:19:08.875Z,2.53
2019-06-01T17:22:05.581Z,1.02
2019-06-01T17:24:55.336Z,1.30
2019-06-01T17:27:42.583Z,1.12
2019-06-01T17:36:42.516Z,3.22
2019-06-01T17:39:44.061Z,1.67
2019-06-01T17:42:38.950Z,1.37
2019-06-01T17:45:30.473Z,2.25
2019-06-01T17:48:25.469Z,2.00
2019-06-01T17:51:06.504Z,0.82
2019-06-01T17:53:53.551Z,1.83
2019-06-01T17:56:40.870Z,1.45
2019-06-01T17:59:28.815Z,1.02
2019-06-01T18:02:15.389Z,1.45
2019-06-01T18:05:02.276Z,1.30
2019-06-01T18:07:49.236Z,1.50
2019-06-01T18:10:50.219Z,1.40
2019-06-01T18:13:23.648Z,1.42
2019-06-01T18:16:13.061Z,1.20
2019-06-01T18:19:12.577Z,1.02
2019-06-01T18:21:59.530Z,1.62
2019-06-01T18:24:47.001Z,1.85
2019-06-01T18:27:34.251Z,2.45
2019-06-01T18:30:21.213Z,1.90
2019-06-01T18:33:09.088Z,2.37
2019-06-01T18:35:56.777Z,1.85
2019-06-01T18:38:43.595Z,2.90
2019-06-01T18:41:37.509Z,2.40
2019-06-01T18:44:24.560Z,1.65
2019-06-01T18:47:11.800Z,3.03
2019-06-01T18:50:06.230Z,1.98
2019-06-01T18:55:59.161Z,2.42
2019-06-01T18:58:46.463Z,1.87
2019-06-01T19:01:33.503Z,3.17
2019-06-01T19:04:20.468Z,2.45
2019-06-01T19:13:20.839Z,4.00
2019-06-01T19:16:08.790Z,2.50
2019-06-01T19:18:55.619Z,3.03
2019-06-01T19:21:43.049Z,2.00
2019-06-01T19:24:30.142Z,2.97
2019-06-01T19:30:32.662Z,3.03
2019-06-01T19:33:19.772Z,2.42
2019-06-01T19:36:07.054Z,3.33
2019-06-01T19:38:55.392Z,3.25
2019-06-01T19:41:45.081Z,2.90
2019-06-01T19:44:29.957Z,2.25
2019-06-01T19:47:18.797Z,1.92
2019-06-01T19:50:04.391Z,2.58
2019-06-01T19:52:51.288Z,2.00
2019-06-01T19:55:38.382Z,5.25
2019-06-01T19:58:24.907Z,2.20
2019-06-01T20:01:12.440Z,3.00
2019-06-01T20:07:06.031Z,2.97
2019-06-01T20:09:53.967Z,2.95
2019-06-01T20:12:40.964Z,3.60
2019-06-01T20:15:42.352Z,2.22
2019-06-01T20:18:30.359Z,2.90
2019-06-01T20:21:18.690Z,3.17
2019-06-01T20:24:04.719Z,2.62
2019-06-01T20:26:54.806Z,3.47
2019-06-01T20:29:42.395Z,5.10
2019-06-01T20:32:44.089Z,2.58
2019-06-01T20:35:45.595Z,3.12
2019-06-01T20:38:33.238Z,3.83
2019-06-01T20:41:20.702Z,2.80
2019-06-01T20:44:07.176Z,5.35
2019-06-01T20:50:00.341Z,12.43
2019-06-01T20:52:48.260Z,6.30
2019-06-01T20:55:35.988Z,8.57
2019-06-01T20:58:24.960Z,5.37
2019-06-01T21:01:10.479Z,4.95
2019-06-01T21:03:58.567Z,5.45
2019-06-01T21:06:46.527Z,5.47
2019-06-01T21:09:34.137Z,3.40
2019-06-01T21:12:31.493Z,3.67
2019-06-01T21:15:08.980Z,3.42
2019-06-01T21:18:03.293Z,2.60
2019-06-01T21:20:50.461Z,4.17
2019-06-01T21:23:37.077Z,4.05
2019-06-01T21:29:31.191Z,20.88
2019-06-01T21:32:19.251Z,13.43
2019-06-01T21:35:05.549Z,9.45
2019-06-01T21:40:59.304Z,7.28
2019-06-01T21:43:46.150Z,9.15
2019-06-01T21:46:33.454Z,6.25
2019-06-01T21:49:22.418Z,4.15
2019-06-01T21:52:09.326Z,3.60
2019-06-01T21:55:01.287Z,5.72
2019-06-01T21:57:48.149Z,3.30
2019-06-01T22:00:37.946Z,4.53
2019-06-01T22:03:32.847Z,3.50
2019-06-01T22:06:21.606Z,3.10
2019-06-01T22:09:08.541Z,5.15
2019-06-01T22:11:55.331Z,3.50
2019-06-01T22:14:42.655Z,4.35
2019-06-01T22:17:30.479Z,3.37
2019-06-01T22:20:17.869Z,2.67
2019-06-01T22:23:12.282Z,2.40
2019-06-01T22:26:00.439Z,3.03
2019-06-01T22:28:47.631Z,3.20
2019-06-01T22:31:35.486Z,4.32
2019-06-01T22:34:26.875Z,3.25
2019-06-01T22:40:19.412Z,3.50
2019-06-01T22:43:07.372Z,4.57
2019-06-01T22:46:08.457Z,5.57
2019-06-01T22:48:55.459Z,4.65
2019-06-01T22:51:56.766Z,5.75
2019-06-01T22:54:43.731Z,5.53
2019-06-01T22:57:32.588Z,4.90
2019-06-01T23:00:19.264Z,4.20
2019-06-01T23:03:07.182Z,4.15
2019-06-01T23:09:14.207Z,5.40
2019-06-01T23:15:09.278Z,4.87
2019-06-01T23:17:59.829Z,5.43
2019-06-01T23:20:46.691Z,4.03
2019-06-01T23:26:46.892Z,5.12
2019-06-01T23:29:34.646Z,4.18
2019-06-01T23:32:22.394Z,4.30
2019-06-01T23:38:15.550Z,7.62
2019-06-01T23:41:05.019Z,7.70
2019-06-01T23:44:09.933Z,7.82
2019-06-01T23:46:40.213Z,6.23
2019-06-01T23:49:27.233Z,7.07
2019-06-01T23:52:17.939Z,5.05
2019-06-01T23:58:12.413Z,5.20
